Terminal Aerodrome Forecast
Issued by NWS

Current Version | Previous Version | Graphics & Text | Print | Product List | Glossary On
Versions: 1 2 3 4 5 6 7 8 9 10 11 12 13 14 15 16 17 18 19 20 21 22 23
990
FTUS41 KPBZ 191026 AAA
TAFHLG
TAF AMD
KHLG 191026Z 1910/2006 15007KT P6SM BKN025 WS020/19045KT
     FM191100 17009KT 6SM -RA OVC015 WS020/21045KT
     FM191500 19010KT 5SM -RA OVC010 WS020/21050KT
     FM192000 19009KT P6SM BKN025 WS020/22045KT
     FM200000 19006KT P6SM BKN060 WS020/23040KT=

USA.gov is the U.S. government's official web portal to all federal, state and local government web resources and services.